createdAt,value
2023-02-14T00:01:12.839Z,101545.91
2023-02-14T00:03:40.367Z,101551.72
2023-02-14T00:06:14.109Z,101553.34
2023-02-14T00:08:44.260Z,101542.31
2023-02-14T00:11:13.223Z,101549.81
2023-02-14T00:14:00.109Z,101557.25
2023-02-14T00:16:26.901Z,101554.63
2023-02-14T00:19:05.498Z,101552.94
2023-02-14T00:21:35.995Z,101550.38
2023-02-14T00:24:09.906Z,101562.09
2023-02-14T00:26:38.589Z,101550.38
2023-02-14T00:29:07.578Z,101550.38
2023-02-14T00:31:35.572Z,101548.63
2023-02-14T00:34:02.799Z,101543.59
2023-02-14T00:36:29.640Z,101539.38
2023-02-14T00:38:56.504Z,101544.31
2023-02-14T00:41:23.329Z,101539.22
2023-02-14T00:43:53.446Z,101536.72
2023-02-14T00:46:22.652Z,101535.88
2023-02-14T00:48:49.797Z,101530.78
2023-02-14T00:51:18.319Z,101532.41
2023-02-14T00:53:47.924Z,101533.28
2023-02-14T00:56:15.684Z,101534.13
2023-02-14T00:58:43.080Z,101525.69
2023-02-14T01:01:11.018Z,101523.06
2023-02-14T01:03:38.054Z,101524.66
2023-02-14T01:06:06.084Z,101521.28
2023-02-14T01:08:33.191Z,101521.28
2023-02-14T01:11:19.462Z,101523.78
2023-02-14T01:13:48.339Z,101517.84
2023-02-14T01:16:22.740Z,101520.28
2023-02-14T01:18:49.995Z,101519.41
2023-02-14T01:21:26.732Z,101516.00
2023-02-14T01:23:57.326Z,101510.97
2023-02-14T01:26:26.108Z,101512.53
2023-02-14T01:28:53.499Z,101510.00
2023-02-14T01:31:30.087Z,101507.44
2023-02-14T01:33:58.657Z,101503.13
2023-02-14T01:36:36.347Z,101507.31
2023-02-14T01:39:08.633Z,101506.38
2023-02-14T01:41:37.939Z,101506.38
2023-02-14T01:44:33.386Z,101504.56
2023-02-14T01:47:07.534Z,101501.09
2023-02-14T01:49:43.039Z,101503.56
2023-02-14T01:52:37.486Z,101496.00
2023-02-14T01:55:16.773Z,101506.91
2023-02-14T01:57:52.984Z,101500.97
2023-02-14T02:00:40.267Z,101505.16
2023-02-14T02:03:09.344Z,101505.16
2023-02-14T02:05:42.679Z,101510.19
2023-02-14T02:08:09.661Z,101505.00
2023-02-14T02:10:36.510Z,101512.56
2023-02-14T02:13:08.162Z,101515.06
2023-02-14T02:16:06.856Z,101503.16
2023-02-14T02:19:03.815Z,101502.88
2023-02-14T02:21:56.688Z,101505.25
2023-02-14T02:24:39.361Z,101496.63
2023-02-14T02:27:17.996Z,101500.75
2023-02-14T02:30:42.589Z,101495.63
2023-02-14T02:33:58.639Z,101493.69
2023-02-14T02:37:02.579Z,101490.03
2023-02-14T02:39:53.148Z,101486.50
2023-02-14T02:43:00.304Z,101494.03
2023-02-14T02:46:17.376Z,101483.84
2023-02-14T02:49:03.500Z,101487.81
2023-02-14T02:52:13.275Z,101478.59
2023-02-14T02:54:51.773Z,101480.97
2023-02-14T02:57:34.720Z,101486.06
2023-02-14T03:00:05.959Z,101486.84
2023-02-14T03:03:07.439Z,101480.91
2023-02-14T03:05:35.777Z,101496.84
2023-02-14T03:08:05.139Z,101487.66
2023-02-14T03:10:38.013Z,101490.19
2023-02-14T03:13:20.944Z,101487.75
2023-02-14T03:16:08.754Z,101489.38
2023-02-14T03:19:15.125Z,101485.88
2023-02-14T03:22:19.689Z,101480.63
2023-02-14T03:25:04.051Z,101478.75
2023-02-14T03:27:47.138Z,101483.78
2023-02-14T03:30:22.958Z,101483.72
2023-02-14T03:33:16.368Z,101489.59
2023-02-14T03:36:05.890Z,101481.97
2023-02-14T03:38:47.321Z,101482.69
2023-02-14T03:41:26.058Z,101483.47
2023-02-14T03:44:01.823Z,101478.44
2023-02-14T03:46:35.748Z,101482.63
2023-02-14T03:49:10.592Z,101485.84
2023-02-14T03:51:38.892Z,101474.06
2023-02-14T03:54:10.727Z,101475.81
2023-02-14T03:56:56.143Z,101476.53
2023-02-14T03:59:26.820Z,101474.66
2023-02-14T04:02:17.610Z,101479.59
2023-02-14T04:04:48.391Z,101471.00
2023-02-14T04:07:18.909Z,101475.84
2023-02-14T04:09:46.835Z,101472.34
2023-02-14T04:12:16.930Z,101471.47
2023-02-14T04:14:45.217Z,101480.59
2023-02-14T04:17:31.077Z,101478.72
2023-02-14T04:19:57.780Z,101482.78
2023-02-14T04:22:24.501Z,101491.09
2023-02-14T04:24:51.358Z,101481.78
2023-02-14T04:27:18.097Z,101479.97
2023-02-14T04:29:49.243Z,101482.41
2023-02-14T04:32:20.514Z,101476.47
2023-02-14T04:34:47.792Z,101482.19
2023-02-14T04:37:18.843Z,101478.66
2023-02-14T04:39:46.167Z,101480.31
2023-02-14T04:42:13.285Z,101471.84
2023-02-14T04:44:40.241Z,101478.50
2023-02-14T04:47:08.886Z,101471.78
2023-02-14T04:49:36.214Z,101470.03
2023-02-14T04:52:04.635Z,101474.22
2023-02-14T04:54:33.261Z,101472.56
2023-02-14T04:57:00.394Z,101472.50
2023-02-14T04:59:27.382Z,101469.19
2023-02-14T05:01:54.698Z,101470.03
2023-02-14T05:04:21.654Z,101455.00
2023-02-14T05:06:48.542Z,101453.31
2023-02-14T05:09:15.467Z,101456.66
2023-02-14T05:11:42.766Z,101449.81
2023-02-14T05:14:09.838Z,101446.44
2023-02-14T05:16:38.434Z,101440.50
2023-02-14T05:19:05.540Z,101438.75
2023-02-14T05:21:33.216Z,101435.38
2023-02-14T05:24:01.785Z,101440.31
2023-02-14T05:26:28.843Z,101447.84
2023-02-14T05:28:56.614Z,101442.91
2023-02-14T05:31:33.732Z,101437.66
2023-02-14T05:34:09.118Z,101434.22
2023-02-14T05:36:36.177Z,101432.41
2023-02-14T05:39:03.546Z,101439.88
2023-02-14T05:41:30.642Z,101444.03
2023-02-14T05:43:57.400Z,101434.72
2023-02-14T05:46:24.132Z,101436.25
2023-02-14T05:48:51.522Z,101437.94
2023-02-14T05:51:18.271Z,101431.97
2023-02-14T05:53:45.089Z,101431.00
2023-02-14T05:56:11.970Z,101431.09
2023-02-14T05:58:38.803Z,101431.84
2023-02-14T06:01:05.674Z,101436.97
2023-02-14T06:03:32.593Z,101435.34
2023-02-14T06:05:59.504Z,101437.84
2023-02-14T06:08:26.361Z,101435.41
2023-02-14T06:10:53.188Z,101438.00
2023-02-14T06:13:19.929Z,101432.13
2023-02-14T06:15:46.726Z,101438.13
2023-02-14T06:18:13.480Z,101438.25
2023-02-14T06:20:40.248Z,101447.41
2023-02-14T06:23:07.089Z,101439.94
2023-02-14T06:25:34.056Z,101439.94
2023-02-14T06:28:01.128Z,101439.16
2023-02-14T06:30:28.466Z,101451.72
2023-02-14T06:32:55.596Z,101447.47
2023-02-14T06:35:22.977Z,101451.63
2023-02-14T06:37:49.827Z,101454.06
2023-02-14T06:40:16.705Z,101442.31
2023-02-14T06:42:44.316Z,101458.22
2023-02-14T06:45:11.487Z,101461.53
2023-02-14T06:47:38.443Z,101461.53
2023-02-14T06:50:06.224Z,101460.66
2023-02-14T06:52:33.768Z,101460.66
2023-02-14T06:55:00.586Z,101458.16
2023-02-14T06:57:27.830Z,101461.53
2023-02-14T06:59:55.046Z,101458.38
2023-02-14T07:02:24.758Z,101460.25
2023-02-14T07:04:51.861Z,101458.06
2023-02-14T07:07:18.625Z,101457.69
2023-02-14T07:09:45.358Z,101453.59
2023-02-14T07:12:12.145Z,101453.91
2023-02-14T07:14:38.930Z,101457.94
2023-02-14T07:17:05.872Z,101463.13
2023-02-14T07:19:32.657Z,101461.00
2023-02-14T07:21:59.357Z,101458.16
2023-02-14T07:24:26.116Z,101456.25
2023-02-14T07:26:52.812Z,101451.94
2023-02-14T07:29:19.602Z,101444.41
2023-02-14T07:31:46.501Z,101447.63
2023-02-14T07:34:13.397Z,101443.09
2023-02-14T07:36:40.204Z,101440.94
2023-02-14T07:39:07.368Z,101429.31
2023-02-14T07:41:34.121Z,101430.88
2023-02-14T07:44:00.947Z,101430.41
2023-02-14T07:46:27.724Z,101433.94
2023-02-14T07:48:54.518Z,101429.59
2023-02-14T07:51:21.214Z,101432.75
2023-02-14T07:53:48.370Z,101434.88
2023-02-14T07:56:15.178Z,101428.34
2023-02-14T07:58:42.020Z,101435.28
2023-02-14T08:01:08.834Z,101434.34
2023-02-14T08:03:35.680Z,101443.50
2023-02-14T08:06:02.608Z,101438.00
2023-02-14T08:08:55.271Z,101431.50
2023-02-14T08:11:40.401Z,101433.50
2023-02-14T08:14:07.679Z,101435.56
2023-02-14T08:16:34.711Z,101437.63
2023-02-14T08:19:02.321Z,101431.19
2023-02-14T08:21:29.620Z,101433.31
2023-02-14T08:23:57.017Z,101437.09
2023-02-14T08:26:23.977Z,101428.94
2023-02-14T08:28:50.900Z,101431.03
2023-02-14T08:31:35.707Z,101426.13
2023-02-14T08:34:06.535Z,101429.00
2023-02-14T08:36:34.885Z,101428.38
2023-02-14T08:39:04.369Z,101419.94
2023-02-14T08:41:31.994Z,101422.44
2023-02-14T08:43:58.979Z,101426.56
2023-02-14T08:46:26.343Z,101426.22
2023-02-14T08:48:54.277Z,101423.44
2023-02-14T08:51:22.737Z,101421.63
2023-02-14T08:53:53.143Z,101415.34
2023-02-14T08:56:22.563Z,101413.34
2023-02-14T08:58:53.444Z,101420.66
2023-02-14T09:01:20.962Z,101417.69
2023-02-14T09:03:48.030Z,101424.91
2023-02-14T09:06:17.204Z,101427.06
2023-02-14T09:08:45.630Z,101420.63
2023-02-14T09:11:23.230Z,101416.75
2023-02-14T09:13:53.222Z,101420.22
2023-02-14T09:16:21.603Z,101410.94
2023-02-14T09:18:49.396Z,101420.56
2023-02-14T09:21:23.017Z,101414.78
2023-02-14T09:23:49.847Z,101414.31
2023-02-14T09:26:18.139Z,101413.91
2023-02-14T09:28:45.250Z,101416.03
2023-02-14T09:31:21.500Z,101419.19
2023-02-14T09:33:50.530Z,101411.81
2023-02-14T09:36:17.545Z,101409.66
2023-02-14T09:38:44.283Z,101402.00
2023-02-14T09:41:29.829Z,101404.03
2023-02-14T09:44:10.960Z,101403.75
2023-02-14T09:46:50.567Z,101400.63
2023-02-14T09:49:28.300Z,101406.59
2023-02-14T09:51:55.489Z,101404.81
2023-02-14T09:54:28.226Z,101406.03
2023-02-14T09:57:45.502Z,101407.72
2023-02-14T10:00:27.570Z,101407.38
2023-02-14T10:03:12.724Z,101401.41
2023-02-14T10:05:56.210Z,101388.75
2023-02-14T10:08:58.915Z,101397.59
2023-02-14T10:11:25.919Z,101392.25
2023-02-14T10:14:02.181Z,101387.00
2023-02-14T10:16:37.492Z,101394.06
2023-02-14T10:19:27.377Z,101385.34
2023-02-14T10:22:02.651Z,101386.94
2023-02-14T10:24:41.904Z,101392.09
2023-02-14T10:27:33.996Z,101388.66
2023-02-14T10:30:02.909Z,101378.53
2023-02-14T10:32:48.932Z,101386.50
2023-02-14T10:35:49.117Z,101377.78
2023-02-14T10:38:54.396Z,101371.88
2023-02-14T10:41:35.584Z,101376.66
2023-02-14T10:44:47.950Z,101368.41
2023-02-14T10:47:42.111Z,101368.63
2023-02-14T10:50:59.420Z,101358.16
2023-02-14T10:53:56.956Z,101367.84
2023-02-14T10:56:34.962Z,101369.19
2023-02-14T10:59:21.755Z,101365.50
2023-02-14T11:01:52.684Z,101363.03
2023-02-14T11:04:23.738Z,101359.47
2023-02-14T11:06:51.294Z,101359.16
2023-02-14T11:09:19.231Z,101361.38
2023-02-14T11:11:53.230Z,101350.38
2023-02-14T11:14:35.697Z,101352.25
2023-02-14T11:17:30.121Z,101348.75
2023-02-14T11:20:09.505Z,101351.81
2023-02-14T11:22:36.328Z,101348.97
2023-02-14T11:25:28.486Z,101339.97
2023-02-14T11:28:16.911Z,101330.97
2023-02-14T11:30:47.504Z,101332.13
2023-02-14T11:33:40.385Z,101331.19
2023-02-14T11:36:17.465Z,101330.13
2023-02-14T11:38:47.228Z,101324.84
2023-02-14T11:41:16.786Z,101320.72
2023-02-14T11:43:45.372Z,101317.38
2023-02-14T11:46:21.336Z,101322.84
2023-02-14T11:49:04.909Z,101318.88
2023-02-14T11:51:40.574Z,101319.78
2023-02-14T11:54:24.689Z,101306.97
2023-02-14T11:56:56.961Z,101301.78
2023-02-14T11:59:36.989Z,101299.88
2023-02-14T12:02:40.519Z,101296.44
2023-02-14T12:05:27.750Z,101297.94
2023-02-14T12:07:58.936Z,101298.47
2023-02-14T12:10:39.206Z,101293.06
2023-02-14T12:13:08.830Z,101292.00
2023-02-14T12:15:43.453Z,101283.97
2023-02-14T12:18:50.294Z,101284.78
2023-02-14T12:21:51.684Z,101274.56
2023-02-14T12:24:38.195Z,101273.63
2023-02-14T12:27:21.043Z,101264.00
2023-02-14T12:30:16.854Z,101264.88
2023-02-14T12:32:58.354Z,101259.59
2023-02-14T12:36:06.701Z,101262.13
2023-02-14T12:39:02.138Z,101266.34
2023-02-14T12:41:48.186Z,101261.69
2023-02-14T12:44:36.919Z,101252.84
2023-02-14T12:47:16.623Z,101250.69
2023-02-14T12:50:00.768Z,101246.72
2023-02-14T12:52:56.077Z,101238.56
2023-02-14T12:56:06.599Z,101241.56
2023-02-14T13:03:34.652Z,101230.66
2023-02-14T13:06:17.201Z,101220.75
2023-02-14T13:09:11.256Z,101216.78
2023-02-14T13:12:37.462Z,101215.34
2023-02-14T13:16:01.362Z,101207.06
2023-02-14T13:19:20.451Z,101202.13
2023-02-14T13:21:49.536Z,101200.59
2023-02-14T13:24:29.487Z,101194.72
2023-02-14T13:27:01.648Z,101199.09
2023-02-14T13:29:43.030Z,101196.66
2023-02-14T13:32:15.412Z,101189.09
2023-02-14T13:34:46.950Z,101190.84
2023-02-14T13:37:20.361Z,101179.84
2023-02-14T13:40:07.689Z,101175.72
2023-02-14T13:42:52.143Z,101182.63
2023-02-14T13:45:40.302Z,101183.50
2023-02-14T13:48:29.275Z,101178.47
2023-02-14T13:51:04.006Z,101169.09
2023-02-14T13:53:48.662Z,101168.28
2023-02-14T13:56:15.386Z,101160.63
2023-02-14T13:59:01.249Z,101164.91
2023-02-14T14:01:39.128Z,101154.72
2023-02-14T14:04:31.951Z,101162.38
2023-02-14T14:07:04.354Z,101165.81
2023-02-14T14:09:43.274Z,101165.78
2023-02-14T14:12:28.473Z,101164.91
2023-02-14T14:15:07.956Z,101170.03
2023-02-14T14:18:08.415Z,101170.84
2023-02-14T14:20:52.375Z,101164.88
2023-02-14T14:23:34.110Z,101153.78
2023-02-14T14:26:01.998Z,101160.63
2023-02-14T14:28:32.911Z,101164.84
2023-02-14T14:30:59.983Z,101157.19
2023-02-14T14:33:33.529Z,101160.59
2023-02-14T14:36:08.829Z,101156.31
2023-02-14T14:38:49.409Z,101148.66
2023-02-14T14:41:16.381Z,101146.09
2023-02-14T14:43:43.644Z,101149.50
2023-02-14T14:46:15.783Z,101143.53
2023-02-14T14:48:51.981Z,101146.91
2023-02-14T14:51:35.097Z,101143.53
2023-02-14T14:54:18.014Z,101153.72
2023-02-14T14:56:59.215Z,101153.72
2023-02-14T14:59:25.822Z,101147.72
2023-02-14T15:01:54.324Z,101146.88
2023-02-14T15:04:35.654Z,101140.91
2023-02-14T15:07:33.256Z,101145.13
2023-02-14T15:10:00.677Z,101141.69
2023-02-14T15:12:46.918Z,101141.66
2023-02-14T15:15:17.765Z,101147.59
2023-02-14T15:17:46.488Z,101135.69
2023-02-14T15:20:23.029Z,101136.47
2023-02-14T15:22:54.048Z,101131.38
2023-02-14T15:25:27.458Z,101133.03
2023-02-14T15:27:54.270Z,101135.59
2023-02-14T15:30:23.526Z,101133.00
2023-02-14T15:32:52.250Z,101131.28
2023-02-14T15:35:28.102Z,101132.97
2023-02-14T15:38:00.768Z,101129.53
2023-02-14T15:40:32.656Z,101135.47
2023-02-14T15:43:25.124Z,101137.94
2023-02-14T15:45:59.340Z,101127.75
2023-02-14T15:48:33.936Z,101126.88
2023-02-14T15:51:04.765Z,101126.81
2023-02-14T15:53:42.495Z,101126.81
2023-02-14T15:56:20.814Z,101123.38
2023-02-14T15:58:49.469Z,101122.50
2023-02-14T16:01:21.763Z,101119.94
2023-02-14T16:03:53.516Z,101119.88
2023-02-14T16:06:44.917Z,101128.34
2023-02-14T16:09:53.371Z,101127.41
2023-02-14T16:12:36.010Z,101126.53
2023-02-14T16:15:31.746Z,101129.88
2023-02-14T16:18:00.974Z,101129.84
2023-02-14T16:20:39.947Z,101134.06
2023-02-14T16:23:25.174Z,101147.63
2023-02-14T16:25:53.142Z,101139.09
2023-02-14T16:28:21.249Z,101140.72
2023-02-14T16:30:55.510Z,101137.28
2023-02-14T16:33:32.172Z,101142.28
2023-02-14T16:36:26.025Z,101132.03
2023-02-14T16:38:53.636Z,101131.06
2023-02-14T16:41:26.046Z,101144.56
2023-02-14T16:43:54.143Z,101136.06
2023-02-14T16:46:25.489Z,101139.38
2023-02-14T16:48:53.017Z,101145.28
2023-02-14T16:51:23.088Z,101146.06
2023-02-14T16:53:50.680Z,101145.19
2023-02-14T16:56:32.270Z,101147.63
2023-02-14T16:58:59.347Z,101147.53
2023-02-14T17:01:26.317Z,101145.75
2023-02-14T17:03:53.184Z,101154.13
2023-02-14T17:06:24.574Z,101146.38
2023-02-14T17:08:54.088Z,101150.09
2023-02-14T17:11:23.417Z,101152.44
2023-02-14T17:13:52.924Z,101147.97
2023-02-14T17:16:20.289Z,101151.13
2023-02-14T17:18:51.532Z,101155.22
2023-02-14T17:21:23.020Z,101155.09
2023-02-14T17:23:50.673Z,101159.19
2023-02-14T17:26:20.067Z,101163.38
2023-02-14T17:28:47.254Z,101157.31
2023-02-14T17:31:14.160Z,101161.44
2023-02-14T17:33:40.983Z,101160.50
2023-02-14T17:36:13.587Z,101151.09
2023-02-14T17:38:43.738Z,101155.22
2023-02-14T17:41:18.496Z,101155.94
2023-02-14T17:43:46.824Z,101146.53
2023-02-14T17:46:14.776Z,101155.72
2023-02-14T17:48:45.364Z,101150.50
2023-02-14T17:51:13.382Z,101150.44
2023-02-14T17:53:43.193Z,101151.16
2023-02-14T17:56:20.292Z,101155.25
2023-02-14T17:58:50.527Z,101143.31
2023-02-14T18:01:22.465Z,101147.41
2023-02-14T18:03:51.752Z,101151.50
2023-02-14T18:06:19.364Z,101146.31
2023-02-14T18:08:49.856Z,101143.63
2023-02-14T18:11:19.220Z,101144.38
2023-02-14T18:13:47.535Z,101145.09
2023-02-14T18:16:18.207Z,101142.47
2023-02-14T18:18:45.964Z,101142.38
2023-02-14T18:21:16.102Z,101139.81
2023-02-14T18:23:43.074Z,101143.09
2023-02-14T18:26:15.513Z,101140.53
2023-02-14T18:28:42.562Z,101131.97
2023-02-14T18:31:16.804Z,101143.72
2023-02-14T18:33:45.225Z,101134.31
2023-02-14T18:36:16.468Z,101135.91
2023-02-14T18:38:45.596Z,101130.75
2023-02-14T18:41:16.475Z,101123.91
2023-02-14T18:43:44.636Z,101117.09
2023-02-14T18:46:15.872Z,101115.31
2023-02-14T18:48:42.700Z,101116.94
2023-02-14T18:51:21.681Z,101124.47
2023-02-14T18:53:52.158Z,101126.94
2023-02-14T18:56:22.926Z,101118.31
2023-02-14T18:58:54.084Z,101120.69
2023-02-14T19:01:25.499Z,101119.66
2023-02-14T19:03:53.878Z,101115.31
2023-02-14T19:06:21.774Z,101110.09
2023-02-14T19:08:49.512Z,101110.81
2023-02-14T19:11:21.221Z,101103.06
2023-02-14T19:13:53.613Z,101097.91
2023-02-14T19:16:34.498Z,101103.72
2023-02-14T19:19:02.656Z,101104.41
2023-02-14T19:21:34.050Z,101100.91
2023-02-14T19:24:02.510Z,101093.19
2023-02-14T19:26:32.891Z,101093.06
2023-02-14T19:29:06.911Z,101092.88
2023-02-14T19:31:40.316Z,101094.41
2023-02-14T19:34:13.716Z,101085.81
2023-02-14T19:36:40.505Z,101092.44
2023-02-14T19:39:07.795Z,101082.25
2023-02-14T19:41:35.780Z,101077.94
2023-02-14T19:44:05.648Z,101075.28
2023-02-14T19:46:34.092Z,101076.03
2023-02-14T19:49:01.792Z,101072.50
2023-02-14T19:51:32.999Z,101072.50
2023-02-14T19:54:02.940Z,101064.84
2023-02-14T19:56:34.303Z,101063.00
2023-02-14T19:59:07.504Z,101060.41
2023-02-14T20:01:39.384Z,101065.38
2023-02-14T20:04:10.047Z,101055.16
2023-02-14T20:06:38.326Z,101055.09
2023-02-14T20:09:07.167Z,101049.91
2023-02-14T20:11:46.627Z,101051.50
2023-02-14T20:14:14.562Z,101053.91
2023-02-14T20:16:41.684Z,101047.94
2023-02-14T20:19:12.719Z,101055.41
2023-02-14T20:21:45.874Z,101053.63
2023-02-14T20:24:20.235Z,101055.16
2023-02-14T20:26:48.606Z,101050.03
2023-02-14T20:29:16.694Z,101050.81
2023-02-14T20:31:50.915Z,101051.56
2023-02-14T20:34:19.313Z,101054.00
2023-02-14T20:36:55.501Z,101050.59
2023-02-14T20:39:29.073Z,101053.88
2023-02-14T20:41:56.040Z,101047.84
2023-02-14T20:44:23.583Z,101047.84
2023-02-14T20:46:53.670Z,101046.84
2023-02-14T20:49:24.960Z,101047.63
2023-02-14T20:51:52.564Z,101050.91
2023-02-14T20:54:23.809Z,101047.44
2023-02-14T20:56:51.160Z,101047.31
2023-02-14T20:59:19.376Z,101048.09
2023-02-14T21:01:46.342Z,101047.00
2023-02-14T21:04:14.055Z,101039.22
2023-02-14T21:06:40.939Z,101053.41
2023-02-14T21:09:08.550Z,101055.59
2023-02-14T21:11:35.360Z,101061.31
2023-02-14T21:14:02.553Z,101047.53
2023-02-14T21:16:30.280Z,101053.22
2023-02-14T21:18:59.410Z,101047.13
2023-02-14T21:21:35.989Z,101051.16
2023-02-14T21:24:07.781Z,101039.19
2023-02-14T21:26:35.106Z,101047.47
2023-02-14T21:29:02.811Z,101052.38
2023-02-14T21:31:31.795Z,101041.28
2023-02-14T21:34:01.790Z,101046.16
2023-02-14T21:36:32.211Z,101045.19
2023-02-14T21:39:00.252Z,101042.47
2023-02-14T21:41:31.051Z,101040.63
2023-02-14T21:44:00.559Z,101029.47
2023-02-14T21:46:31.481Z,101023.47
2023-02-14T21:49:19.587Z,101024.94
2023-02-14T21:51:48.140Z,101025.59
2023-02-14T21:54:16.568Z,101023.66
2023-02-14T21:56:44.537Z,101015.13
2023-02-14T21:59:12.341Z,101001.56
2023-02-14T22:01:42.153Z,101008.16
2023-02-14T22:04:12.124Z,101014.75
2023-02-14T22:06:41.809Z,101012.13
2023-02-14T22:09:12.218Z,101001.88
2023-02-14T22:11:38.964Z,101006.81
2023-02-14T22:14:05.805Z,101007.63
2023-02-14T22:16:32.989Z,101013.41
2023-02-14T22:18:59.717Z,101006.56
2023-02-14T22:21:27.475Z,101006.47
2023-02-14T22:23:55.413Z,101004.66
2023-02-14T22:26:26.516Z,101006.19
2023-02-14T22:28:59.188Z,101000.97
2023-02-14T22:31:30.069Z,100996.66
2023-02-14T22:33:56.977Z,100999.88
2023-02-14T22:36:23.783Z,100999.75
2023-02-14T22:38:50.529Z,100995.53
2023-02-14T22:41:23.990Z,100997.88
2023-02-14T22:43:53.408Z,100999.44
2023-02-14T22:46:26.949Z,101000.97
2023-02-14T22:48:55.535Z,100998.31
2023-02-14T22:51:30.150Z,100994.00
2023-02-14T22:54:01.749Z,100993.09
2023-02-14T22:56:34.147Z,100983.59
2023-02-14T22:59:05.507Z,100989.38
2023-02-14T23:01:35.835Z,100995.97
2023-02-14T23:04:04.095Z,100990.81
2023-02-14T23:06:33.948Z,100985.63
2023-02-14T23:09:02.923Z,100992.25
2023-02-14T23:11:32.981Z,100993.84
2023-02-14T23:14:18.968Z,100997.97
2023-02-14T23:17:05.064Z,100997.72
2023-02-14T23:19:53.163Z,100996.72
2023-02-14T23:22:27.600Z,100999.94
2023-02-14T23:24:57.866Z,100993.13
2023-02-14T23:27:43.699Z,100993.88
2023-02-14T23:30:15.473Z,100992.94
2023-02-14T23:32:42.439Z,100995.38
2023-02-14T23:35:09.861Z,100986.91
2023-02-14T23:37:36.735Z,100987.66
2023-02-14T23:40:04.100Z,100984.28
2023-02-14T23:42:30.890Z,100988.38
2023-02-14T23:45:17.777Z,100985.09
2023-02-14T23:47:44.568Z,100982.53
2023-02-14T23:50:11.505Z,100978.34
2023-02-14T23:52:41.564Z,100977.50
2023-02-14T23:55:09.227Z,100975.78
2023-02-14T23:57:37.210Z,100976.56
